createdAt,value
2022-12-26T00:01:16.164Z,3.60
2022-12-26T00:04:05.127Z,2.78
2022-12-26T00:06:45.403Z,3.63
2022-12-26T00:09:14.610Z,4.00
2022-12-26T00:11:47.089Z,3.67
2022-12-26T00:14:21.610Z,3.72
2022-12-26T00:16:52.869Z,3.40
2022-12-26T00:19:30.703Z,3.40
2022-12-26T00:22:00.386Z,3.15
2022-12-26T00:24:31.615Z,2.97
2022-12-26T00:27:02.270Z,3.22
2022-12-26T00:29:30.892Z,3.22
2022-12-26T00:32:02.260Z,3.70
2022-12-26T00:34:36.901Z,3.17
2022-12-26T00:37:05.343Z,3.53
2022-12-26T00:39:46.946Z,4.18
2022-12-26T00:42:15.603Z,3.53
2022-12-26T00:45:00.646Z,3.30
2022-12-26T00:47:30.817Z,3.15
2022-12-26T00:50:12.274Z,3.05
2022-12-26T00:52:51.891Z,2.90
2022-12-26T00:55:25.531Z,3.17
2022-12-26T00:58:01.171Z,2.95
2022-12-26T01:00:31.969Z,2.70
2022-12-26T01:03:03.263Z,2.70
2022-12-26T01:05:33.055Z,3.20
2022-12-26T01:08:21.682Z,2.80
2022-12-26T01:10:51.367Z,2.45
2022-12-26T01:13:32.291Z,2.85
2022-12-26T01:16:02.636Z,2.85
2022-12-26T01:18:34.831Z,2.90
2022-12-26T01:21:08.514Z,2.97
2022-12-26T01:23:38.322Z,3.13
2022-12-26T01:26:18.300Z,2.95
2022-12-26T01:28:58.754Z,3.08
2022-12-26T01:31:32.587Z,2.90
2022-12-26T01:34:03.833Z,3.45
2022-12-26T01:36:34.630Z,3.25
2022-12-26T01:39:04.265Z,3.00
2022-12-26T01:41:33.853Z,2.70
2022-12-26T01:44:06.309Z,3.25
2022-12-26T01:46:40.042Z,2.45
2022-12-26T01:49:17.686Z,2.83
2022-12-26T01:52:04.894Z,2.30
2022-12-26T01:54:46.781Z,3.30
2022-12-26T01:57:21.041Z,2.95
2022-12-26T01:59:54.123Z,2.50
2022-12-26T02:02:27.595Z,3.03
2022-12-26T02:05:17.574Z,2.85
2022-12-26T02:07:53.313Z,2.97
2022-12-26T02:10:25.962Z,3.03
2022-12-26T02:12:57.364Z,3.05
2022-12-26T02:15:25.879Z,3.28
2022-12-26T02:17:54.589Z,3.15
2022-12-26T02:20:28.625Z,3.10
2022-12-26T02:23:31.869Z,3.38
2022-12-26T02:26:30.528Z,3.03
2022-12-26T02:29:34.463Z,3.50
2022-12-26T02:32:32.813Z,3.47
2022-12-26T02:35:13.117Z,2.72
2022-12-26T02:37:56.031Z,3.38
2022-12-26T02:40:42.987Z,3.25
2022-12-26T02:43:22.786Z,2.97
2022-12-26T02:46:22.254Z,3.13
2022-12-26T02:49:00.239Z,2.60
2022-12-26T02:52:11.582Z,2.35
2022-12-26T02:55:05.951Z,3.25
2022-12-26T02:57:56.374Z,2.70
2022-12-26T03:00:52.461Z,2.85
2022-12-26T03:03:45.434Z,3.05
2022-12-26T03:06:37.929Z,3.10
2022-12-26T03:09:27.248Z,3.22
2022-12-26T03:12:19.534Z,2.88
2022-12-26T03:14:58.042Z,2.78
2022-12-26T03:17:40.698Z,2.75
2022-12-26T03:20:14.133Z,2.28
2022-12-26T03:22:48.854Z,2.22
2022-12-26T03:25:39.021Z,2.83
2022-12-26T03:28:09.348Z,2.17
2022-12-26T03:30:52.355Z,1.90
2022-12-26T03:33:44.133Z,2.20
2022-12-26T03:36:17.407Z,1.88
2022-12-26T03:39:10.145Z,1.73
2022-12-26T03:42:02.045Z,1.88
2022-12-26T03:45:06.003Z,1.90
2022-12-26T03:47:59.903Z,1.80
2022-12-26T03:50:54.864Z,2.30
2022-12-26T03:53:50.696Z,2.10
2022-12-26T03:56:54.052Z,1.63
2022-12-26T03:59:50.263Z,1.60
2022-12-26T04:02:49.123Z,1.60
2022-12-26T04:05:37.223Z,1.80
2022-12-26T04:08:29.908Z,2.13
2022-12-26T04:11:20.485Z,1.75
2022-12-26T04:14:19.938Z,2.00
2022-12-26T04:17:27.346Z,1.60
2022-12-26T04:20:05.275Z,2.45
2022-12-26T04:23:03.074Z,1.65
2022-12-26T04:25:53.936Z,1.77
2022-12-26T04:28:41.903Z,1.70
2022-12-26T04:31:36.412Z,1.60
2022-12-26T04:34:28.131Z,1.95
2022-12-26T04:37:19.329Z,1.80
2022-12-26T04:40:10.085Z,1.38
2022-12-26T04:42:57.267Z,1.50
2022-12-26T04:45:35.917Z,1.50
2022-12-26T04:48:31.093Z,1.45
2022-12-26T04:50:59.664Z,1.33
2022-12-26T04:53:29.418Z,1.20
2022-12-26T04:56:02.198Z,1.73
2022-12-26T04:58:33.124Z,1.20
2022-12-26T05:01:22.587Z,1.30
2022-12-26T05:04:25.488Z,1.48
2022-12-26T05:07:11.712Z,1.30
2022-12-26T05:09:41.453Z,1.50
2022-12-26T05:12:19.047Z,1.08
2022-12-26T05:14:49.634Z,2.15
2022-12-26T05:17:38.742Z,1.33
2022-12-26T05:20:46.061Z,1.15
2022-12-26T05:23:38.402Z,1.20
2022-12-26T05:26:35.568Z,1.13
2022-12-26T05:29:12.194Z,1.10
2022-12-26T05:31:42.083Z,0.95
2022-12-26T05:34:21.081Z,1.40
2022-12-26T05:36:54.569Z,1.08
2022-12-26T05:39:25.078Z,1.25
2022-12-26T05:41:55.965Z,1.33
2022-12-26T05:44:24.742Z,1.17
2022-12-26T05:46:53.475Z,1.08
2022-12-26T05:49:23.915Z,1.45
2022-12-26T05:51:55.082Z,1.02
2022-12-26T05:54:34.786Z,1.33
2022-12-26T05:57:04.502Z,0.73
2022-12-26T05:59:36.701Z,1.10
2022-12-26T06:02:05.427Z,0.90
2022-12-26T06:04:35.081Z,1.27
2022-12-26T06:07:05.172Z,1.00
2022-12-26T06:09:33.838Z,1.17
2022-12-26T06:12:09.734Z,1.30
2022-12-26T06:14:42.486Z,0.90
2022-12-26T06:17:12.214Z,1.25
2022-12-26T06:19:46.720Z,1.55
2022-12-26T06:22:32.475Z,1.25
2022-12-26T06:25:01.505Z,1.23
2022-12-26T06:27:36.993Z,1.15
2022-12-26T06:30:06.545Z,1.00
2022-12-26T06:32:36.857Z,1.08
2022-12-26T06:35:05.697Z,1.15
2022-12-26T06:37:43.760Z,1.58
2022-12-26T06:40:13.594Z,1.02
2022-12-26T06:42:42.271Z,1.00
2022-12-26T06:45:13.365Z,0.93
2022-12-26T06:47:41.700Z,1.02
2022-12-26T06:50:11.301Z,1.15
2022-12-26T06:52:42.818Z,0.90
2022-12-26T06:55:14.668Z,1.10
2022-12-26T06:57:49.363Z,1.00
2022-12-26T07:00:19.379Z,1.10
2022-12-26T07:02:53.248Z,1.00
2022-12-26T07:05:21.644Z,1.10
2022-12-26T07:07:54.683Z,1.30
2022-12-26T07:10:30.781Z,0.93
2022-12-26T07:13:00.355Z,0.90
2022-12-26T07:15:30.146Z,1.08
2022-12-26T07:18:01.724Z,0.90
2022-12-26T07:20:32.152Z,1.10
2022-12-26T07:23:07.470Z,0.60
2022-12-26T07:25:39.017Z,1.00
2022-12-26T07:28:07.623Z,1.27
2022-12-26T07:30:38.325Z,1.42
2022-12-26T07:33:10.171Z,0.93
2022-12-26T07:35:38.945Z,0.80
2022-12-26T07:38:10.933Z,2.30
2022-12-26T07:40:41.024Z,1.05
2022-12-26T07:43:11.691Z,1.10
2022-12-26T07:45:45.353Z,0.77
2022-12-26T07:48:14.713Z,1.13
2022-12-26T07:50:47.853Z,0.90
2022-12-26T07:53:19.421Z,1.20
2022-12-26T07:55:50.532Z,1.02
2022-12-26T07:58:24.344Z,0.85
2022-12-26T08:00:54.250Z,1.10
2022-12-26T08:03:23.373Z,1.17
2022-12-26T08:05:52.941Z,0.93
2022-12-26T08:08:30.350Z,0.98
2022-12-26T08:11:07.464Z,1.00
2022-12-26T08:13:36.847Z,0.90
2022-12-26T08:16:10.571Z,1.20
2022-12-26T08:18:57.208Z,1.17
2022-12-26T08:21:33.387Z,1.30
2022-12-26T08:24:05.701Z,0.80
2022-12-26T08:26:34.955Z,1.10
2022-12-26T08:29:03.576Z,0.77
2022-12-26T08:31:38.745Z,0.82
2022-12-26T08:34:08.475Z,0.90
2022-12-26T08:36:37.693Z,1.30
2022-12-26T08:39:08.378Z,1.15
2022-12-26T08:41:37.166Z,1.20
2022-12-26T08:46:54.517Z,1.15
2022-12-26T08:49:25.209Z,1.00
2022-12-26T08:51:58.701Z,1.10
2022-12-26T08:54:31.648Z,1.20
2022-12-26T08:57:03.086Z,0.98
2022-12-26T08:59:38.745Z,0.98
2022-12-26T09:02:07.796Z,0.93
2022-12-26T09:04:36.971Z,0.82
2022-12-26T09:07:05.800Z,1.10
2022-12-26T09:09:37.673Z,0.90
2022-12-26T09:12:06.864Z,1.30
2022-12-26T09:14:36.261Z,1.02
2022-12-26T09:17:04.799Z,1.02
2022-12-26T09:19:34.119Z,1.13
2022-12-26T09:22:20.088Z,1.00
2022-12-26T09:24:50.867Z,1.30
2022-12-26T09:27:19.799Z,1.00
2022-12-26T09:29:50.785Z,1.10
2022-12-26T09:32:19.222Z,0.95
2022-12-26T09:34:50.476Z,0.80
2022-12-26T09:37:19.295Z,1.17
2022-12-26T09:40:05.805Z,1.25
2022-12-26T09:42:44.594Z,1.27
2022-12-26T09:45:17.958Z,1.20
2022-12-26T09:47:59.661Z,1.17
2022-12-26T09:50:37.102Z,1.00
2022-12-26T09:53:15.972Z,1.20
2022-12-26T09:55:52.479Z,1.27
2022-12-26T09:58:28.272Z,1.15
2022-12-26T10:01:10.004Z,1.10
2022-12-26T10:03:42.330Z,1.15
2022-12-26T10:06:19.435Z,1.25
2022-12-26T10:09:10.924Z,1.35
2022-12-26T10:11:59.416Z,1.20
2022-12-26T10:14:40.702Z,1.10
2022-12-26T10:17:18.079Z,1.13
2022-12-26T10:20:09.842Z,1.40
2022-12-26T10:23:00.483Z,0.90
2022-12-26T10:25:38.372Z,1.27
2022-12-26T10:28:18.818Z,1.30
2022-12-26T10:30:51.732Z,1.13
2022-12-26T10:33:32.556Z,1.30
2022-12-26T10:36:01.342Z,1.20
2022-12-26T10:38:37.442Z,1.23
2022-12-26T10:41:14.209Z,1.40
2022-12-26T10:43:45.814Z,1.20
2022-12-26T10:46:40.280Z,1.67
2022-12-26T10:49:12.937Z,1.40
2022-12-26T10:51:42.569Z,1.15
2022-12-26T10:54:18.107Z,1.38
2022-12-26T10:56:50.918Z,1.40
2022-12-26T10:59:23.617Z,1.38
2022-12-26T11:01:52.519Z,1.35
2022-12-26T11:04:53.147Z,1.40
2022-12-26T11:07:19.312Z,1.73
2022-12-26T11:09:56.284Z,1.35
2022-12-26T11:12:32.154Z,1.42
2022-12-26T11:15:06.219Z,1.00
2022-12-26T11:18:09.710Z,1.33
2022-12-26T11:20:40.727Z,1.33
2022-12-26T11:23:31.913Z,1.35
2022-12-26T11:26:03.570Z,1.40
2022-12-26T11:28:38.326Z,1.35
2022-12-26T11:31:27.157Z,1.30
2022-12-26T11:34:02.769Z,1.60
2022-12-26T11:36:40.907Z,1.48
2022-12-26T11:39:33.587Z,1.33
2022-12-26T11:42:11.436Z,1.15
2022-12-26T11:44:45.736Z,1.15
2022-12-26T11:47:18.435Z,1.13
2022-12-26T11:49:53.690Z,2.00
2022-12-26T11:52:40.327Z,2.00
2022-12-26T11:55:33.319Z,3.13
2022-12-26T11:58:06.501Z,2.35
2022-12-26T12:00:38.785Z,2.20
2022-12-26T12:03:19.143Z,2.17
2022-12-26T12:05:55.948Z,2.20
2022-12-26T12:08:36.804Z,2.30
2022-12-26T12:11:23.817Z,2.38
2022-12-26T12:14:15.575Z,2.35
2022-12-26T12:16:55.674Z,1.65
2022-12-26T12:19:33.936Z,1.30
2022-12-26T12:22:23.259Z,1.48
2022-12-26T12:25:07.603Z,1.70
2022-12-26T12:27:48.038Z,1.38
2022-12-26T12:30:28.066Z,1.40
2022-12-26T12:33:30.146Z,1.30
2022-12-26T12:36:10.092Z,1.25
2022-12-26T12:38:54.906Z,1.42
2022-12-26T12:41:57.178Z,1.00
2022-12-26T12:44:35.988Z,1.42
2022-12-26T12:47:14.894Z,1.40
2022-12-26T12:49:55.194Z,1.67
2022-12-26T12:52:38.879Z,1.60
2022-12-26T12:55:32.072Z,1.20
2022-12-26T12:58:09.788Z,1.70
2022-12-26T13:00:44.554Z,1.52
2022-12-26T13:03:20.677Z,1.40
2022-12-26T13:05:56.418Z,1.40
2022-12-26T13:08:34.113Z,1.20
2022-12-26T13:11:08.956Z,1.50
2022-12-26T13:13:42.023Z,1.77
2022-12-26T13:16:15.765Z,1.45
2022-12-26T13:18:51.722Z,1.70
2022-12-26T13:21:20.850Z,1.60
2022-12-26T13:24:14.427Z,1.40
2022-12-26T13:26:47.109Z,1.00
2022-12-26T13:29:20.044Z,1.50
2022-12-26T13:31:48.895Z,1.08
2022-12-26T13:34:19.717Z,1.20
2022-12-26T13:36:50.237Z,4.50
2022-12-26T13:39:39.708Z,1.98
2022-12-26T13:42:48.149Z,1.42
2022-12-26T13:45:50.506Z,1.88
2022-12-26T13:48:57.986Z,1.77
2022-12-26T13:51:58.231Z,1.90
2022-12-26T13:54:29.033Z,1.67
2022-12-26T13:57:37.539Z,1.80
2022-12-26T14:00:17.946Z,1.70
2022-12-26T14:03:24.876Z,1.67
2022-12-26T14:06:15.700Z,1.60
2022-12-26T14:08:58.698Z,1.40
2022-12-26T14:11:58.856Z,1.33
2022-12-26T14:14:54.550Z,1.45
2022-12-26T14:17:40.649Z,1.33
2022-12-26T14:20:25.823Z,1.30
2022-12-26T14:23:06.183Z,1.30
2022-12-26T14:25:50.920Z,1.23
2022-12-26T14:28:29.502Z,1.50
2022-12-26T14:31:22.392Z,2.15
2022-12-26T14:34:03.003Z,1.67
2022-12-26T14:36:48.692Z,1.95
2022-12-26T14:39:28.888Z,1.90
2022-12-26T14:42:35.885Z,1.60
2022-12-26T14:45:13.779Z,1.70
2022-12-26T14:47:46.685Z,1.80
2022-12-26T14:50:44.304Z,1.80
2022-12-26T14:53:35.767Z,2.00
2022-12-26T14:56:34.945Z,3.30
2022-12-26T14:59:26.703Z,1.88
2022-12-26T15:02:26.239Z,2.28
2022-12-26T15:05:07.340Z,2.20
2022-12-26T15:08:15.832Z,3.08
2022-12-26T15:11:23.520Z,3.05
2022-12-26T15:14:44.496Z,2.08
2022-12-26T15:17:22.859Z,2.58
2022-12-26T15:20:23.171Z,2.35
2022-12-26T15:23:24.214Z,3.45
2022-12-26T15:26:37.742Z,2.50
2022-12-26T15:29:47.349Z,3.05
2022-12-26T15:32:22.632Z,2.88
2022-12-26T15:35:05.282Z,2.63
2022-12-26T15:37:54.138Z,2.30
2022-12-26T15:40:26.061Z,3.50
2022-12-26T15:43:19.390Z,3.80
2022-12-26T15:45:53.084Z,3.28
2022-12-26T15:48:36.524Z,2.70
2022-12-26T15:51:11.460Z,2.50
2022-12-26T15:53:56.686Z,2.20
2022-12-26T15:56:50.413Z,2.30
2022-12-26T16:00:26.598Z,1.63
2022-12-26T16:03:29.745Z,2.05
2022-12-26T16:06:09.898Z,2.10
2022-12-26T16:08:56.027Z,2.22
2022-12-26T16:11:30.693Z,2.17
2022-12-26T16:14:01.615Z,2.63
2022-12-26T16:16:35.624Z,2.40
2022-12-26T16:19:19.170Z,3.10
2022-12-26T16:22:09.061Z,2.05
2022-12-26T16:24:40.450Z,2.80
2022-12-26T16:27:11.021Z,2.40
2022-12-26T16:29:49.032Z,2.88
2022-12-26T16:32:22.673Z,2.72
2022-12-26T16:34:53.123Z,2.55
2022-12-26T16:37:27.704Z,3.50
2022-12-26T16:40:18.257Z,3.25
2022-12-26T16:42:57.613Z,2.85
2022-12-26T16:45:27.542Z,3.25
2022-12-26T16:47:58.402Z,3.20
2022-12-26T16:50:29.673Z,6.53
2022-12-26T16:53:14.016Z,2.55
2022-12-26T16:55:46.698Z,2.65
2022-12-26T16:58:23.742Z,2.90
2022-12-26T17:01:01.180Z,2.88
2022-12-26T17:03:38.950Z,3.38
2022-12-26T17:06:10.922Z,3.38
2022-12-26T17:08:48.917Z,3.60
2022-12-26T17:11:18.833Z,4.03
2022-12-26T17:13:54.452Z,3.88
2022-12-26T17:16:26.381Z,4.22
2022-12-26T17:19:09.746Z,3.85
2022-12-26T17:21:38.274Z,3.65
2022-12-26T17:24:29.417Z,5.10
2022-12-26T17:27:18.696Z,4.05
2022-12-26T17:29:54.300Z,5.65
2022-12-26T17:32:37.823Z,4.43
2022-12-26T17:35:16.575Z,4.00
2022-12-26T17:37:47.881Z,3.95
2022-12-26T17:40:29.401Z,3.60
2022-12-26T17:43:08.078Z,7.70
2022-12-26T17:45:40.087Z,8.57
2022-12-26T17:48:14.321Z,6.05
2022-12-26T17:50:47.250Z,3.50
2022-12-26T17:53:29.853Z,3.58
2022-12-26T17:56:02.190Z,2.95
2022-12-26T17:58:33.663Z,7.03
2022-12-26T18:01:04.930Z,4.63
2022-12-26T18:03:34.918Z,3.28
2022-12-26T18:06:17.453Z,2.85
2022-12-26T18:08:47.007Z,3.03
2022-12-26T18:11:20.491Z,3.35
2022-12-26T18:13:49.462Z,2.90
2022-12-26T18:16:25.747Z,3.70
2022-12-26T18:18:55.816Z,2.50
2022-12-26T18:21:30.664Z,2.90
2022-12-26T18:24:06.529Z,2.78
2022-12-26T18:26:37.196Z,3.10
2022-12-26T18:29:10.994Z,4.28
2022-12-26T18:31:40.911Z,3.22
2022-12-26T18:34:20.152Z,3.63
2022-12-26T18:36:55.785Z,3.38
2022-12-26T18:39:32.798Z,3.63
2022-12-26T18:42:14.824Z,3.45
2022-12-26T18:44:44.444Z,4.10
2022-12-26T18:47:16.160Z,4.10
2022-12-26T18:49:45.668Z,4.07
2022-12-26T18:52:21.768Z,3.90
2022-12-26T18:54:56.233Z,4.22
2022-12-26T18:57:24.628Z,3.60
2022-12-26T18:59:53.360Z,3.92
2022-12-26T19:02:23.217Z,3.78
2022-12-26T19:05:01.600Z,4.18
2022-12-26T19:07:33.443Z,3.60
2022-12-26T19:10:03.634Z,3.33
2022-12-26T19:12:33.153Z,4.30
2022-12-26T19:15:02.656Z,4.68
2022-12-26T19:17:32.235Z,4.28
2022-12-26T19:20:01.952Z,4.18
2022-12-26T19:22:33.053Z,4.28
2022-12-26T19:25:01.880Z,4.38
2022-12-26T19:27:30.540Z,8.23
2022-12-26T19:29:59.413Z,5.32
2022-12-26T19:32:28.072Z,5.22
2022-12-26T19:34:58.017Z,5.57
2022-12-26T19:37:29.575Z,6.38
2022-12-26T19:40:03.068Z,4.70
2022-12-26T19:42:34.860Z,5.20
2022-12-26T19:45:07.493Z,4.65
2022-12-26T19:47:38.896Z,4.72
2022-12-26T19:50:11.841Z,5.40
2022-12-26T19:52:41.623Z,5.40
2022-12-26T19:55:13.896Z,5.18
2022-12-26T19:57:42.697Z,4.70
2022-12-26T20:00:14.364Z,4.90
2022-12-26T20:02:43.720Z,4.38
2022-12-26T20:05:13.787Z,5.22
2022-12-26T20:07:50.745Z,5.45
2022-12-26T20:10:20.872Z,6.82
2022-12-26T20:12:50.516Z,5.05
2022-12-26T20:15:26.422Z,4.68
2022-12-26T20:17:56.699Z,4.60
2022-12-26T20:20:29.052Z,3.72
2022-12-26T20:22:59.103Z,5.25
2022-12-26T20:25:36.801Z,4.55
2022-12-26T20:28:06.469Z,3.97
2022-12-26T20:30:35.014Z,4.55
2022-12-26T20:33:03.847Z,4.00
2022-12-26T20:35:32.552Z,3.88
2022-12-26T20:38:02.407Z,3.63
2022-12-26T20:40:34.131Z,3.13
2022-12-26T20:43:02.856Z,7.30
2022-12-26T20:45:31.498Z,6.15
2022-12-26T20:48:01.157Z,3.90
2022-12-26T20:50:34.454Z,3.78
2022-12-26T20:53:03.324Z,3.88
2022-12-26T20:55:37.846Z,5.35
2022-12-26T20:58:06.736Z,5.50
2022-12-26T21:00:49.734Z,5.90
2022-12-26T21:03:24.738Z,4.60
2022-12-26T21:05:53.418Z,5.20
2022-12-26T21:08:23.238Z,4.75
2022-12-26T21:10:54.246Z,4.28
2022-12-26T21:13:23.053Z,4.60
2022-12-26T21:15:52.905Z,5.25
2022-12-26T21:18:21.656Z,4.90
2022-12-26T21:20:50.712Z,4.00
2022-12-26T21:23:19.404Z,3.95
2022-12-26T21:25:49.563Z,4.20
2022-12-26T21:28:19.985Z,4.10
2022-12-26T21:30:56.545Z,4.57
2022-12-26T21:33:25.413Z,3.65
2022-12-26T21:36:00.181Z,4.88
2022-12-26T21:38:32.263Z,4.38
2022-12-26T21:41:05.304Z,5.25
2022-12-26T21:43:36.340Z,4.97
2022-12-26T21:46:10.433Z,5.30
2022-12-26T21:48:47.561Z,4.18
2022-12-26T21:51:18.236Z,4.97
2022-12-26T21:53:47.910Z,4.78
2022-12-26T21:56:19.207Z,7.60
2022-12-26T21:59:12.780Z,4.55
2022-12-26T22:01:41.770Z,4.70
2022-12-26T22:04:21.565Z,4.63
2022-12-26T22:06:53.171Z,4.63
2022-12-26T22:09:21.970Z,4.28
2022-12-26T22:12:10.418Z,4.05
2022-12-26T22:14:42.679Z,3.53
2022-12-26T22:17:12.422Z,5.43
2022-12-26T22:19:43.152Z,4.47
2022-12-26T22:22:13.248Z,4.03
2022-12-26T22:24:43.953Z,3.80
2022-12-26T22:27:13.385Z,3.70
2022-12-26T22:29:43.495Z,4.65
2022-12-26T22:32:12.730Z,4.05
2022-12-26T22:34:41.761Z,3.55
2022-12-26T22:37:10.372Z,3.65
2022-12-26T22:39:39.092Z,3.90
2022-12-26T22:42:17.037Z,3.55
2022-12-26T22:44:49.536Z,3.47
2022-12-26T22:47:18.632Z,4.13
2022-12-26T22:49:48.384Z,4.05
2022-12-26T22:52:17.570Z,3.75
2022-12-26T22:54:47.266Z,4.05
2022-12-26T22:57:23.987Z,4.30
2022-12-26T23:00:08.259Z,4.43
2022-12-26T23:02:38.540Z,3.90
2022-12-26T23:05:10.466Z,4.53
2022-12-26T23:07:41.030Z,3.80
2022-12-26T23:10:19.685Z,4.20
2022-12-26T23:12:53.611Z,5.05
2022-12-26T23:15:27.333Z,5.45
2022-12-26T23:18:21.356Z,5.55
2022-12-26T23:21:07.573Z,4.63
2022-12-26T23:23:38.057Z,3.85
2022-12-26T23:26:06.639Z,4.57
2022-12-26T23:28:52.690Z,2.95
2022-12-26T23:31:22.745Z,2.92
2022-12-26T23:33:52.692Z,3.00
2022-12-26T23:36:28.505Z,3.60
2022-12-26T23:38:58.280Z,3.47
2022-12-26T23:41:30.039Z,3.20
2022-12-26T23:43:59.130Z,3.63
2022-12-26T23:46:30.781Z,4.63
2022-12-26T23:49:00.598Z,5.20
2022-12-26T23:51:31.717Z,4.18
2022-12-26T23:54:32.334Z,4.60
